sensor_id;sensor_type;location;lat;lon;timestamp;P1;durP1;ratioP1;P2;durP2;ratioP2
19406;SDS011;9839;53.364;-1.204;2023-12-28T00:01:58;10.40;;;1.00;;
19406;SDS011;9839;53.364;-1.204;2023-12-28T00:04:23;3.53;;;1.03;;
19406;SDS011;9839;53.364;-1.204;2023-12-28T00:06:48;7.63;;;0.77;;
19406;SDS011;9839;53.364;-1.204;2023-12-28T00:09:14;4.97;;;0.80;;
19406;SDS011;9839;53.364;-1.204;2023-12-28T00:11:39;5.80;;;0.70;;
19406;SDS011;9839;53.364;-1.204;2023-12-28T00:14:05;6.50;;;0.87;;
19406;SDS011;9839;53.364;-1.204;2023-12-28T00:16:30;3.30;;;1.27;;
19406;SDS011;9839;53.364;-1.204;2023-12-28T00:18:58;6.17;;;1.20;;
19406;SDS011;9839;53.364;-1.204;2023-12-28T00:21:23;5.70;;;1.33;;
19406;SDS011;9839;53.364;-1.204;2023-12-28T00:23:48;4.43;;;1.00;;
19406;SDS011;9839;53.364;-1.204;2023-12-28T00:26:14;6.30;;;0.90;;
19406;SDS011;9839;53.364;-1.204;2023-12-28T00:28:39;17.10;;;2.00;;
19406;SDS011;9839;53.364;-1.204;2023-12-28T00:31:04;6.20;;;1.20;;
19406;SDS011;9839;53.364;-1.204;2023-12-28T00:33:30;12.17;;;1.57;;
19406;SDS011;9839;53.364;-1.204;2023-12-28T00:35:55;11.17;;;1.60;;
19406;SDS011;9839;53.364;-1.204;2023-12-28T00:38:21;11.90;;;1.60;;
19406;SDS011;9839;53.364;-1.204;2023-12-28T00:40:46;11.40;;;2.30;;
19406;SDS011;9839;53.364;-1.204;2023-12-28T00:43:11;11.97;;;1.30;;
19406;SDS011;9839;53.364;-1.204;2023-12-28T00:45:37;16.37;;;1.90;;
19406;SDS011;9839;53.364;-1.204;2023-12-28T00:48:02;9.90;;;1.90;;
19406;SDS011;9839;53.364;-1.204;2023-12-28T00:50:28;13.57;;;2.10;;
19406;SDS011;9839;53.364;-1.204;2023-12-28T00:52:56;11.77;;;1.70;;
19406;SDS011;9839;53.364;-1.204;2023-12-28T00:55:22;19.87;;;2.07;;
19406;SDS011;9839;53.364;-1.204;2023-12-28T00:57:47;9.43;;;2.13;;
19406;SDS011;9839;53.364;-1.204;2023-12-28T01:00:12;16.63;;;2.27;;
19406;SDS011;9839;53.364;-1.204;2023-12-28T01:02:38;21.20;;;3.00;;
19406;SDS011;9839;53.364;-1.204;2023-12-28T01:05:03;12.53;;;2.00;;
19406;SDS011;9839;53.364;-1.204;2023-12-28T01:07:29;11.33;;;2.10;;
19406;SDS011;9839;53.364;-1.204;2023-12-28T01:09:54;14.57;;;2.40;;
19406;SDS011;9839;53.364;-1.204;2023-12-28T01:12:20;9.80;;;1.87;;
19406;SDS011;9839;53.364;-1.204;2023-12-28T01:14:45;18.67;;;3.77;;
19406;SDS011;9839;53.364;-1.204;2023-12-28T01:17:11;17.13;;;3.50;;
19406;SDS011;9839;53.364;-1.204;2023-12-28T01:19:36;10.70;;;2.47;;
19406;SDS011;9839;53.364;-1.204;2023-12-28T01:22:01;11.33;;;2.27;;
19406;SDS011;9839;53.364;-1.204;2023-12-28T01:24:27;16.00;;;2.43;;
19406;SDS011;9839;53.364;-1.204;2023-12-28T01:26:52;12.63;;;2.47;;
19406;SDS011;9839;53.364;-1.204;2023-12-28T01:29:18;19.87;;;2.43;;
19406;SDS011;9839;53.364;-1.204;2023-12-28T01:31:43;11.47;;;1.73;;
19406;SDS011;9839;53.364;-1.204;2023-12-28T01:34:08;13.40;;;2.13;;
19406;SDS011;9839;53.364;-1.204;2023-12-28T01:36:34;16.87;;;2.57;;
19406;SDS011;9839;53.364;-1.204;2023-12-28T01:38:59;13.70;;;2.40;;
19406;SDS011;9839;53.364;-1.204;2023-12-28T01:41:25;17.07;;;2.50;;
19406;SDS011;9839;53.364;-1.204;2023-12-28T01:43:50;11.30;;;2.03;;
19406;SDS011;9839;53.364;-1.204;2023-12-28T01:46:17;16.47;;;2.47;;
19406;SDS011;9839;53.364;-1.204;2023-12-28T01:48:44;14.37;;;2.30;;
19406;SDS011;9839;53.364;-1.204;2023-12-28T01:51:11;20.83;;;3.17;;
19406;SDS011;9839;53.364;-1.204;2023-12-28T01:53:37;17.50;;;2.80;;
19406;SDS011;9839;53.364;-1.204;2023-12-28T01:56:02;14.47;;;2.47;;
19406;SDS011;9839;53.364;-1.204;2023-12-28T01:58:28;28.13;;;3.70;;
19406;SDS011;9839;53.364;-1.204;2023-12-28T02:00:55;19.73;;;2.77;;
19406;SDS011;9839;53.364;-1.204;2023-12-28T02:03:21;26.77;;;3.53;;
19406;SDS011;9839;53.364;-1.204;2023-12-28T02:05:46;21.00;;;3.20;;
19406;SDS011;9839;53.364;-1.204;2023-12-28T02:08:12;21.47;;;2.63;;
19406;SDS011;9839;53.364;-1.204;2023-12-28T02:10:38;18.47;;;2.93;;
19406;SDS011;9839;53.364;-1.204;2023-12-28T02:13:04;25.83;;;3.77;;
19406;SDS011;9839;53.364;-1.204;2023-12-28T02:15:29;12.77;;;2.30;;
19406;SDS011;9839;53.364;-1.204;2023-12-28T02:17:56;12.67;;;2.57;;
19406;SDS011;9839;53.364;-1.204;2023-12-28T02:20:26;11.97;;;2.43;;
19406;SDS011;9839;53.364;-1.204;2023-12-28T02:22:53;23.30;;;3.13;;
19406;SDS011;9839;53.364;-1.204;2023-12-28T02:25:19;26.83;;;3.30;;
19406;SDS011;9839;53.364;-1.204;2023-12-28T02:27:45;17.70;;;3.40;;
19406;SDS011;9839;53.364;-1.204;2023-12-28T02:30:11;22.57;;;3.20;;
19406;SDS011;9839;53.364;-1.204;2023-12-28T02:35:10;14.17;;;2.80;;
19406;SDS011;9839;53.364;-1.204;2023-12-28T02:38:03;18.27;;;3.10;;
19406;SDS011;9839;53.364;-1.204;2023-12-28T02:40:31;18.33;;;3.23;;
19406;SDS011;9839;53.364;-1.204;2023-12-28T02:43:11;25.50;;;3.63;;
19406;SDS011;9839;53.364;-1.204;2023-12-28T02:45:37;19.10;;;3.03;;
19406;SDS011;9839;53.364;-1.204;2023-12-28T02:48:04;24.20;;;3.50;;
19406;SDS011;9839;53.364;-1.204;2023-12-28T02:50:30;17.73;;;2.93;;
19406;SDS011;9839;53.364;-1.204;2023-12-28T02:52:56;15.60;;;3.00;;
19406;SDS011;9839;53.364;-1.204;2023-12-28T02:55:22;23.00;;;4.20;;
19406;SDS011;9839;53.364;-1.204;2023-12-28T02:57:48;14.03;;;3.13;;
19406;SDS011;9839;53.364;-1.204;2023-12-28T03:00:14;23.80;;;2.93;;
19406;SDS011;9839;53.364;-1.204;2023-12-28T03:02:40;15.93;;;2.80;;
19406;SDS011;9839;53.364;-1.204;2023-12-28T03:05:05;20.47;;;2.80;;
19406;SDS011;9839;53.364;-1.204;2023-12-28T03:07:31;20.07;;;3.13;;
19406;SDS011;9839;53.364;-1.204;2023-12-28T03:09:57;17.77;;;3.07;;
19406;SDS011;9839;53.364;-1.204;2023-12-28T03:12:23;19.77;;;2.70;;
19406;SDS011;9839;53.364;-1.204;2023-12-28T03:14:48;17.33;;;3.60;;
19406;SDS011;9839;53.364;-1.204;2023-12-28T03:17:14;20.93;;;2.47;;
19406;SDS011;9839;53.364;-1.204;2023-12-28T03:19:39;22.30;;;2.60;;
19406;SDS011;9839;53.364;-1.204;2023-12-28T03:22:05;24.70;;;3.10;;
19406;SDS011;9839;53.364;-1.204;2023-12-28T03:24:30;17.37;;;3.23;;
19406;SDS011;9839;53.364;-1.204;2023-12-28T03:26:56;19.73;;;2.80;;
19406;SDS011;9839;53.364;-1.204;2023-12-28T03:29:21;22.47;;;3.40;;
19406;SDS011;9839;53.364;-1.204;2023-12-28T03:31:47;16.87;;;2.67;;
19406;SDS011;9839;53.364;-1.204;2023-12-28T03:34:12;21.97;;;2.90;;
19406;SDS011;9839;53.364;-1.204;2023-12-28T03:36:38;18.53;;;2.37;;
19406;SDS011;9839;53.364;-1.204;2023-12-28T03:39:03;18.90;;;3.17;;
19406;SDS011;9839;53.364;-1.204;2023-12-28T03:41:30;25.87;;;3.33;;
19406;SDS011;9839;53.364;-1.204;2023-12-28T03:43:55;23.47;;;2.97;;
19406;SDS011;9839;53.364;-1.204;2023-12-28T03:46:21;18.53;;;3.50;;
19406;SDS011;9839;53.364;-1.204;2023-12-28T03:48:46;16.57;;;2.67;;
19406;SDS011;9839;53.364;-1.204;2023-12-28T03:51:15;21.67;;;3.83;;
19406;SDS011;9839;53.364;-1.204;2023-12-28T03:53:41;23.67;;;4.20;;
19406;SDS011;9839;53.364;-1.204;2023-12-28T03:56:18;19.00;;;2.73;;
19406;SDS011;9839;53.364;-1.204;2023-12-28T03:58:50;23.80;;;3.10;;
19406;SDS011;9839;53.364;-1.204;2023-12-28T04:01:19;23.37;;;3.03;;
19406;SDS011;9839;53.364;-1.204;2023-12-28T04:03:46;20.07;;;3.37;;
19406;SDS011;9839;53.364;-1.204;2023-12-28T04:06:12;18.73;;;3.27;;
19406;SDS011;9839;53.364;-1.204;2023-12-28T04:08:38;12.97;;;2.60;;
19406;SDS011;9839;53.364;-1.204;2023-12-28T04:11:04;19.87;;;3.37;;
19406;SDS011;9839;53.364;-1.204;2023-12-28T04:13:29;22.23;;;4.27;;
19406;SDS011;9839;53.364;-1.204;2023-12-28T04:15:54;17.90;;;2.97;;
19406;SDS011;9839;53.364;-1.204;2023-12-28T04:18:20;24.67;;;3.57;;
19406;SDS011;9839;53.364;-1.204;2023-12-28T04:20:45;22.53;;;3.43;;
19406;SDS011;9839;53.364;-1.204;2023-12-28T04:23:10;14.43;;;2.90;;
19406;SDS011;9839;53.364;-1.204;2023-12-28T04:25:36;14.87;;;3.47;;
19406;SDS011;9839;53.364;-1.204;2023-12-28T04:28:01;24.23;;;2.90;;
19406;SDS011;9839;53.364;-1.204;2023-12-28T04:30:27;18.17;;;2.93;;
19406;SDS011;9839;53.364;-1.204;2023-12-28T04:32:53;19.70;;;3.97;;
19406;SDS011;9839;53.364;-1.204;2023-12-28T04:35:18;21.37;;;3.33;;
19406;SDS011;9839;53.364;-1.204;2023-12-28T04:37:44;15.93;;;2.67;;
19406;SDS011;9839;53.364;-1.204;2023-12-28T04:40:10;22.93;;;3.40;;
19406;SDS011;9839;53.364;-1.204;2023-12-28T04:42:35;22.50;;;3.10;;
19406;SDS011;9839;53.364;-1.204;2023-12-28T04:45:01;19.17;;;3.33;;
19406;SDS011;9839;53.364;-1.204;2023-12-28T04:47:26;21.10;;;3.43;;
19406;SDS011;9839;53.364;-1.204;2023-12-28T04:49:52;23.57;;;3.13;;
19406;SDS011;9839;53.364;-1.204;2023-12-28T04:52:17;17.83;;;3.23;;
19406;SDS011;9839;53.364;-1.204;2023-12-28T04:54:43;19.07;;;3.40;;
19406;SDS011;9839;53.364;-1.204;2023-12-28T04:57:08;24.70;;;3.93;;
19406;SDS011;9839;53.364;-1.204;2023-12-28T04:59:42;22.50;;;3.23;;
19406;SDS011;9839;53.364;-1.204;2023-12-28T05:02:08;18.00;;;3.60;;
19406;SDS011;9839;53.364;-1.204;2023-12-28T05:04:36;24.67;;;3.37;;
19406;SDS011;9839;53.364;-1.204;2023-12-28T05:07:03;24.53;;;4.10;;
19406;SDS011;9839;53.364;-1.204;2023-12-28T05:09:29;24.00;;;3.17;;
19406;SDS011;9839;53.364;-1.204;2023-12-28T05:11:54;19.37;;;3.17;;
19406;SDS011;9839;53.364;-1.204;2023-12-28T05:14:19;19.90;;;2.93;;
19406;SDS011;9839;53.364;-1.204;2023-12-28T05:16:45;18.03;;;3.27;;
19406;SDS011;9839;53.364;-1.204;2023-12-28T05:19:10;21.93;;;2.90;;
19406;SDS011;9839;53.364;-1.204;2023-12-28T05:21:35;21.17;;;3.27;;
19406;SDS011;9839;53.364;-1.204;2023-12-28T05:24:01;18.70;;;2.93;;
19406;SDS011;9839;53.364;-1.204;2023-12-28T05:26:26;18.63;;;3.93;;
19406;SDS011;9839;53.364;-1.204;2023-12-28T05:28:52;17.90;;;3.70;;
19406;SDS011;9839;53.364;-1.204;2023-12-28T05:31:18;25.37;;;3.47;;
19406;SDS011;9839;53.364;-1.204;2023-12-28T05:33:43;23.20;;;3.40;;
19406;SDS011;9839;53.364;-1.204;2023-12-28T05:36:08;21.47;;;3.93;;
19406;SDS011;9839;53.364;-1.204;2023-12-28T05:38:34;22.07;;;3.77;;
19406;SDS011;9839;53.364;-1.204;2023-12-28T05:40:59;23.27;;;3.90;;
19406;SDS011;9839;53.364;-1.204;2023-12-28T05:43:25;25.73;;;3.53;;
19406;SDS011;9839;53.364;-1.204;2023-12-28T05:45:50;26.50;;;4.40;;
19406;SDS011;9839;53.364;-1.204;2023-12-28T05:48:15;27.40;;;4.77;;
19406;SDS011;9839;53.364;-1.204;2023-12-28T05:50:41;19.87;;;2.80;;
19406;SDS011;9839;53.364;-1.204;2023-12-28T05:53:06;24.90;;;4.00;;
19406;SDS011;9839;53.364;-1.204;2023-12-28T05:55:32;24.73;;;3.40;;
19406;SDS011;9839;53.364;-1.204;2023-12-28T05:57:57;20.50;;;2.93;;
19406;SDS011;9839;53.364;-1.204;2023-12-28T06:00:22;24.37;;;3.27;;
19406;SDS011;9839;53.364;-1.204;2023-12-28T06:02:48;24.10;;;3.50;;
19406;SDS011;9839;53.364;-1.204;2023-12-28T06:05:17;28.83;;;4.00;;
19406;SDS011;9839;53.364;-1.204;2023-12-28T06:07:43;22.07;;;3.07;;
19406;SDS011;9839;53.364;-1.204;2023-12-28T06:10:08;27.80;;;3.87;;
19406;SDS011;9839;53.364;-1.204;2023-12-28T06:12:34;20.87;;;3.73;;
19406;SDS011;9839;53.364;-1.204;2023-12-28T06:14:59;22.60;;;3.30;;
19406;SDS011;9839;53.364;-1.204;2023-12-28T06:17:25;21.63;;;3.53;;
19406;SDS011;9839;53.364;-1.204;2023-12-28T06:19:50;16.67;;;3.13;;
19406;SDS011;9839;53.364;-1.204;2023-12-28T06:22:16;25.47;;;3.43;;
19406;SDS011;9839;53.364;-1.204;2023-12-28T06:24:41;16.63;;;3.63;;
19406;SDS011;9839;53.364;-1.204;2023-12-28T06:27:06;23.40;;;3.40;;
19406;SDS011;9839;53.364;-1.204;2023-12-28T06:29:32;20.93;;;4.27;;
19406;SDS011;9839;53.364;-1.204;2023-12-28T06:31:57;19.90;;;3.37;;
19406;SDS011;9839;53.364;-1.204;2023-12-28T06:34:23;21.00;;;3.70;;
19406;SDS011;9839;53.364;-1.204;2023-12-28T06:36:48;20.30;;;3.00;;
19406;SDS011;9839;53.364;-1.204;2023-12-28T06:39:13;16.93;;;3.67;;
19406;SDS011;9839;53.364;-1.204;2023-12-28T06:41:39;22.03;;;3.20;;
19406;SDS011;9839;53.364;-1.204;2023-12-28T06:44:04;26.10;;;4.40;;
19406;SDS011;9839;53.364;-1.204;2023-12-28T06:46:30;18.07;;;3.37;;
19406;SDS011;9839;53.364;-1.204;2023-12-28T06:48:55;21.43;;;2.47;;
19406;SDS011;9839;53.364;-1.204;2023-12-28T06:51:20;25.67;;;3.67;;
19406;SDS011;9839;53.364;-1.204;2023-12-28T06:53:47;13.93;;;2.97;;
19406;SDS011;9839;53.364;-1.204;2023-12-28T06:56:14;20.10;;;3.23;;
19406;SDS011;9839;53.364;-1.204;2023-12-28T06:58:40;24.30;;;3.97;;
19406;SDS011;9839;53.364;-1.204;2023-12-28T07:01:05;26.83;;;3.47;;
19406;SDS011;9839;53.364;-1.204;2023-12-28T07:03:31;18.73;;;3.17;;
19406;SDS011;9839;53.364;-1.204;2023-12-28T07:05:58;21.00;;;3.43;;
19406;SDS011;9839;53.364;-1.204;2023-12-28T07:08:27;23.57;;;3.13;;
19406;SDS011;9839;53.364;-1.204;2023-12-28T07:10:53;21.87;;;3.10;;
19406;SDS011;9839;53.364;-1.204;2023-12-28T07:13:18;18.43;;;2.67;;
19406;SDS011;9839;53.364;-1.204;2023-12-28T07:15:44;19.07;;;3.57;;
19406;SDS011;9839;53.364;-1.204;2023-12-28T07:18:09;13.90;;;2.80;;
19406;SDS011;9839;53.364;-1.204;2023-12-28T07:20:34;25.60;;;6.17;;
19406;SDS011;9839;53.364;-1.204;2023-12-28T07:23:00;28.77;;;4.07;;
19406;SDS011;9839;53.364;-1.204;2023-12-28T07:25:25;20.33;;;3.70;;
19406;SDS011;9839;53.364;-1.204;2023-12-28T07:27:51;32.27;;;3.70;;
19406;SDS011;9839;53.364;-1.204;2023-12-28T07:30:16;18.33;;;3.90;;
19406;SDS011;9839;53.364;-1.204;2023-12-28T07:32:42;15.43;;;2.80;;
19406;SDS011;9839;53.364;-1.204;2023-12-28T07:35:08;23.37;;;3.77;;
19406;SDS011;9839;53.364;-1.204;2023-12-28T07:37:34;27.17;;;3.30;;
19406;SDS011;9839;53.364;-1.204;2023-12-28T07:40:00;22.37;;;3.93;;
19406;SDS011;9839;53.364;-1.204;2023-12-28T07:42:25;18.80;;;3.00;;
19406;SDS011;9839;53.364;-1.204;2023-12-28T07:44:51;32.03;;;3.27;;
19406;SDS011;9839;53.364;-1.204;2023-12-28T07:47:16;18.73;;;3.23;;
19406;SDS011;9839;53.364;-1.204;2023-12-28T07:49:42;14.90;;;2.17;;
19406;SDS011;9839;53.364;-1.204;2023-12-28T07:52:07;31.77;;;3.60;;
19406;SDS011;9839;53.364;-1.204;2023-12-28T07:54:33;16.60;;;3.83;;
19406;SDS011;9839;53.364;-1.204;2023-12-28T07:56:59;14.47;;;2.67;;
19406;SDS011;9839;53.364;-1.204;2023-12-28T07:59:24;25.30;;;3.43;;
19406;SDS011;9839;53.364;-1.204;2023-12-28T08:01:50;19.00;;;3.17;;
19406;SDS011;9839;53.364;-1.204;2023-12-28T08:04:15;20.93;;;3.03;;
19406;SDS011;9839;53.364;-1.204;2023-12-28T08:06:41;21.43;;;2.40;;
19406;SDS011;9839;53.364;-1.204;2023-12-28T08:09:06;16.03;;;2.70;;
19406;SDS011;9839;53.364;-1.204;2023-12-28T08:11:32;22.30;;;3.03;;
19406;SDS011;9839;53.364;-1.204;2023-12-28T08:13:57;17.97;;;2.40;;
19406;SDS011;9839;53.364;-1.204;2023-12-28T08:16:22;16.50;;;2.97;;
19406;SDS011;9839;53.364;-1.204;2023-12-28T08:18:48;19.10;;;2.97;;
19406;SDS011;9839;53.364;-1.204;2023-12-28T08:21:13;16.90;;;2.60;;
19406;SDS011;9839;53.364;-1.204;2023-12-28T08:23:39;19.03;;;2.83;;
19406;SDS011;9839;53.364;-1.204;2023-12-28T08:26:04;17.60;;;2.27;;
19406;SDS011;9839;53.364;-1.204;2023-12-28T08:28:30;10.40;;;1.60;;
19406;SDS011;9839;53.364;-1.204;2023-12-28T08:30:56;8.27;;;1.53;;
19406;SDS011;9839;53.364;-1.204;2023-12-28T08:33:21;9.67;;;1.20;;
19406;SDS011;9839;53.364;-1.204;2023-12-28T08:35:47;16.17;;;2.03;;
19406;SDS011;9839;53.364;-1.204;2023-12-28T08:38:13;6.13;;;0.90;;
19406;SDS011;9839;53.364;-1.204;2023-12-28T08:40:38;4.70;;;0.77;;
19406;SDS011;9839;53.364;-1.204;2023-12-28T08:43:03;7.57;;;1.13;;
19406;SDS011;9839;53.364;-1.204;2023-12-28T08:45:29;3.77;;;0.80;;
19406;SDS011;9839;53.364;-1.204;2023-12-28T08:47:54;5.27;;;0.83;;
19406;SDS011;9839;53.364;-1.204;2023-12-28T08:50:20;5.03;;;0.77;;
19406;SDS011;9839;53.364;-1.204;2023-12-28T08:52:45;2.67;;;0.60;;
19406;SDS011;9839;53.364;-1.204;2023-12-28T08:55:11;5.93;;;0.87;;
19406;SDS011;9839;53.364;-1.204;2023-12-28T08:57:36;4.13;;;0.57;;
19406;SDS011;9839;53.364;-1.204;2023-12-28T09:00:01;2.33;;;0.60;;
19406;SDS011;9839;53.364;-1.204;2023-12-28T09:02:30;2.80;;;1.00;;
19406;SDS011;9839;53.364;-1.204;2023-12-28T09:04:57;9.30;;;1.33;;
19406;SDS011;9839;53.364;-1.204;2023-12-28T09:07:23;7.93;;;1.90;;
19406;SDS011;9839;53.364;-1.204;2023-12-28T09:09:48;6.93;;;1.30;;
19406;SDS011;9839;53.364;-1.204;2023-12-28T09:12:14;4.90;;;1.40;;
19406;SDS011;9839;53.364;-1.204;2023-12-28T09:14:39;6.07;;;1.10;;
19406;SDS011;9839;53.364;-1.204;2023-12-28T09:17:05;7.53;;;1.47;;
19406;SDS011;9839;53.364;-1.204;2023-12-28T09:19:30;10.57;;;1.67;;
19406;SDS011;9839;53.364;-1.204;2023-12-28T09:21:56;15.13;;;1.40;;
19406;SDS011;9839;53.364;-1.204;2023-12-28T09:24:21;11.90;;;1.53;;
19406;SDS011;9839;53.364;-1.204;2023-12-28T09:26:47;6.47;;;1.63;;
19406;SDS011;9839;53.364;-1.204;2023-12-28T09:29:12;6.97;;;1.30;;
19406;SDS011;9839;53.364;-1.204;2023-12-28T09:31:39;7.73;;;1.23;;
19406;SDS011;9839;53.364;-1.204;2023-12-28T09:34:04;10.77;;;1.63;;
19406;SDS011;9839;53.364;-1.204;2023-12-28T09:36:30;5.63;;;1.00;;
19406;SDS011;9839;53.364;-1.204;2023-12-28T09:38:56;9.53;;;1.60;;
19406;SDS011;9839;53.364;-1.204;2023-12-28T09:41:21;9.20;;;1.10;;
19406;SDS011;9839;53.364;-1.204;2023-12-28T09:43:54;9.30;;;1.47;;
19406;SDS011;9839;53.364;-1.204;2023-12-28T09:46:26;10.53;;;1.50;;
19406;SDS011;9839;53.364;-1.204;2023-12-28T09:48:54;10.13;;;1.30;;
19406;SDS011;9839;53.364;-1.204;2023-12-28T09:51:21;12.10;;;1.60;;
19406;SDS011;9839;53.364;-1.204;2023-12-28T09:53:46;7.20;;;1.47;;
19406;SDS011;9839;53.364;-1.204;2023-12-28T09:56:12;6.30;;;1.10;;
19406;SDS011;9839;53.364;-1.204;2023-12-28T09:58:39;8.50;;;1.17;;
19406;SDS011;9839;53.364;-1.204;2023-12-28T10:01:05;5.60;;;1.13;;
19406;SDS011;9839;53.364;-1.204;2023-12-28T10:03:31;8.60;;;1.50;;
19406;SDS011;9839;53.364;-1.204;2023-12-28T10:05:57;5.97;;;1.20;;
19406;SDS011;9839;53.364;-1.204;2023-12-28T10:08:22;4.93;;;1.27;;
19406;SDS011;9839;53.364;-1.204;2023-12-28T10:10:49;7.20;;;1.07;;
19406;SDS011;9839;53.364;-1.204;2023-12-28T10:13:19;8.00;;;1.50;;
19406;SDS011;9839;53.364;-1.204;2023-12-28T10:15:46;8.70;;;1.43;;
19406;SDS011;9839;53.364;-1.204;2023-12-28T10:18:12;8.03;;;1.10;;
19406;SDS011;9839;53.364;-1.204;2023-12-28T10:20:38;2.80;;;0.90;;
19406;SDS011;9839;53.364;-1.204;2023-12-28T10:23:03;4.90;;;1.20;;
19406;SDS011;9839;53.364;-1.204;2023-12-28T10:25:30;11.13;;;1.70;;
19406;SDS011;9839;53.364;-1.204;2023-12-28T10:27:57;13.67;;;1.73;;
19406;SDS011;9839;53.364;-1.204;2023-12-28T10:30:23;7.63;;;1.07;;
19406;SDS011;9839;53.364;-1.204;2023-12-28T10:32:48;7.87;;;1.27;;
19406;SDS011;9839;53.364;-1.204;2023-12-28T10:35:14;11.60;;;1.67;;
19406;SDS011;9839;53.364;-1.204;2023-12-28T10:37:40;7.27;;;1.20;;
19406;SDS011;9839;53.364;-1.204;2023-12-28T10:40:14;10.73;;;1.73;;
19406;SDS011;9839;53.364;-1.204;2023-12-28T10:42:51;7.87;;;1.40;;
19406;SDS011;9839;53.364;-1.204;2023-12-28T10:45:19;6.10;;;1.53;;
19406;SDS011;9839;53.364;-1.204;2023-12-28T10:50:43;9.50;;;1.40;;
19406;SDS011;9839;53.364;-1.204;2023-12-28T10:59:09;13.90;;;2.13;;
19406;SDS011;9839;53.364;-1.204;2023-12-28T11:02:02;13.13;;;1.70;;
19406;SDS011;9839;53.364;-1.204;2023-12-28T11:04:33;19.00;;;2.33;;
19406;SDS011;9839;53.364;-1.204;2023-12-28T11:07:03;19.27;;;3.13;;
19406;SDS011;9839;53.364;-1.204;2023-12-28T11:09:30;10.80;;;2.03;;
19406;SDS011;9839;53.364;-1.204;2023-12-28T11:11:57;7.27;;;1.60;;
19406;SDS011;9839;53.364;-1.204;2023-12-28T11:14:25;16.07;;;2.30;;
19406;SDS011;9839;53.364;-1.204;2023-12-28T11:16:52;15.07;;;2.43;;
19406;SDS011;9839;53.364;-1.204;2023-12-28T11:19:18;12.30;;;2.00;;
19406;SDS011;9839;53.364;-1.204;2023-12-28T11:21:46;6.37;;;1.67;;
19406;SDS011;9839;53.364;-1.204;2023-12-28T11:24:13;10.07;;;1.80;;
19406;SDS011;9839;53.364;-1.204;2023-12-28T11:26:38;10.97;;;1.47;;
19406;SDS011;9839;53.364;-1.204;2023-12-28T11:29:04;10.43;;;1.57;;
19406;SDS011;9839;53.364;-1.204;2023-12-28T11:31:33;19.47;;;3.90;;
19406;SDS011;9839;53.364;-1.204;2023-12-28T11:34:03;12.30;;;1.77;;
19406;SDS011;9839;53.364;-1.204;2023-12-28T11:36:36;10.87;;;1.80;;
19406;SDS011;9839;53.364;-1.204;2023-12-28T11:39:05;11.33;;;1.83;;
19406;SDS011;9839;53.364;-1.204;2023-12-28T11:41:37;14.03;;;1.50;;
19406;SDS011;9839;53.364;-1.204;2023-12-28T11:44:03;13.60;;;1.80;;
19406;SDS011;9839;53.364;-1.204;2023-12-28T11:46:32;14.50;;;2.20;;
19406;SDS011;9839;53.364;-1.204;2023-12-28T11:49:07;17.83;;;2.37;;
19406;SDS011;9839;53.364;-1.204;2023-12-28T11:51:35;12.57;;;2.07;;
19406;SDS011;9839;53.364;-1.204;2023-12-28T11:54:02;14.67;;;2.30;;
19406;SDS011;9839;53.364;-1.204;2023-12-28T11:56:31;20.33;;;2.63;;
19406;SDS011;9839;53.364;-1.204;2023-12-28T11:58:58;13.17;;;1.90;;
19406;SDS011;9839;53.364;-1.204;2023-12-28T12:01:24;10.07;;;1.87;;
19406;SDS011;9839;53.364;-1.204;2023-12-28T12:03:49;17.60;;;3.00;;
19406;SDS011;9839;53.364;-1.204;2023-12-28T12:06:15;16.33;;;2.70;;
19406;SDS011;9839;53.364;-1.204;2023-12-28T12:08:44;16.33;;;2.30;;
19406;SDS011;9839;53.364;-1.204;2023-12-28T12:11:11;18.63;;;2.27;;
19406;SDS011;9839;53.364;-1.204;2023-12-28T12:13:36;13.40;;;2.20;;
19406;SDS011;9839;53.364;-1.204;2023-12-28T12:16:02;13.20;;;1.90;;
19406;SDS011;9839;53.364;-1.204;2023-12-28T12:18:31;13.13;;;2.13;;
19406;SDS011;9839;53.364;-1.204;2023-12-28T12:20:57;22.87;;;2.67;;
19406;SDS011;9839;53.364;-1.204;2023-12-28T12:23:23;15.57;;;2.37;;
19406;SDS011;9839;53.364;-1.204;2023-12-28T12:25:48;12.53;;;2.00;;
19406;SDS011;9839;53.364;-1.204;2023-12-28T12:28:13;16.63;;;3.17;;
19406;SDS011;9839;53.364;-1.204;2023-12-28T12:30:40;14.03;;;2.80;;
19406;SDS011;9839;53.364;-1.204;2023-12-28T12:33:05;15.30;;;2.87;;
19406;SDS011;9839;53.364;-1.204;2023-12-28T12:35:31;13.90;;;1.57;;
19406;SDS011;9839;53.364;-1.204;2023-12-28T12:37:56;8.53;;;1.50;;
19406;SDS011;9839;53.364;-1.204;2023-12-28T12:40:22;2.13;;;0.70;;
19406;SDS011;9839;53.364;-1.204;2023-12-28T12:42:53;4.77;;;0.80;;
19406;SDS011;9839;53.364;-1.204;2023-12-28T12:45:19;3.23;;;0.53;;
19406;SDS011;9839;53.364;-1.204;2023-12-28T12:47:46;6.00;;;0.67;;
19406;SDS011;9839;53.364;-1.204;2023-12-28T12:50:12;1.67;;;0.70;;
19406;SDS011;9839;53.364;-1.204;2023-12-28T12:52:38;2.27;;;0.40;;
19406;SDS011;9839;53.364;-1.204;2023-12-28T12:55:04;1.63;;;0.70;;
19406;SDS011;9839;53.364;-1.204;2023-12-28T12:57:29;4.83;;;1.13;;
19406;SDS011;9839;53.364;-1.204;2023-12-28T12:59:55;4.33;;;0.77;;
19406;SDS011;9839;53.364;-1.204;2023-12-28T13:02:24;2.40;;;0.70;;
19406;SDS011;9839;53.364;-1.204;2023-12-28T13:04:53;2.40;;;0.50;;
19406;SDS011;9839;53.364;-1.204;2023-12-28T13:07:19;6.17;;;0.80;;
19406;SDS011;9839;53.364;-1.204;2023-12-28T13:09:45;2.07;;;0.53;;
19406;SDS011;9839;53.364;-1.204;2023-12-28T13:12:10;2.60;;;0.60;;
19406;SDS011;9839;53.364;-1.204;2023-12-28T13:14:36;3.60;;;0.80;;
19406;SDS011;9839;53.364;-1.204;2023-12-28T13:17:01;4.63;;;0.47;;
19406;SDS011;9839;53.364;-1.204;2023-12-28T13:19:27;1.27;;;0.30;;
19406;SDS011;9839;53.364;-1.204;2023-12-28T13:21:52;2.00;;;0.63;;
19406;SDS011;9839;53.364;-1.204;2023-12-28T13:24:18;1.43;;;0.67;;
19406;SDS011;9839;53.364;-1.204;2023-12-28T13:26:43;1.60;;;0.70;;
19406;SDS011;9839;53.364;-1.204;2023-12-28T13:29:09;1.57;;;1.10;;
19406;SDS011;9839;53.364;-1.204;2023-12-28T13:31:34;1.03;;;0.30;;
19406;SDS011;9839;53.364;-1.204;2023-12-28T13:34:00;3.43;;;0.60;;
19406;SDS011;9839;53.364;-1.204;2023-12-28T13:36:25;0.63;;;0.40;;
19406;SDS011;9839;53.364;-1.204;2023-12-28T13:38:53;2.20;;;0.50;;
19406;SDS011;9839;53.364;-1.204;2023-12-28T13:41:18;0.43;;;0.30;;
19406;SDS011;9839;53.364;-1.204;2023-12-28T13:43:44;2.37;;;0.50;;
19406;SDS011;9839;53.364;-1.204;2023-12-28T13:46:09;1.57;;;0.70;;
19406;SDS011;9839;53.364;-1.204;2023-12-28T13:48:35;2.23;;;0.60;;
19406;SDS011;9839;53.364;-1.204;2023-12-28T13:51:00;2.70;;;0.60;;
19406;SDS011;9839;53.364;-1.204;2023-12-28T13:53:26;3.70;;;0.70;;
19406;SDS011;9839;53.364;-1.204;2023-12-28T13:55:51;3.40;;;0.57;;
19406;SDS011;9839;53.364;-1.204;2023-12-28T13:58:17;5.03;;;0.90;;
19406;SDS011;9839;53.364;-1.204;2023-12-28T14:00:43;6.27;;;0.83;;
19406;SDS011;9839;53.364;-1.204;2023-12-28T14:03:08;2.43;;;0.90;;
19406;SDS011;9839;53.364;-1.204;2023-12-28T14:05:33;7.13;;;0.70;;
19406;SDS011;9839;53.364;-1.204;2023-12-28T14:07:59;2.07;;;0.60;;
19406;SDS011;9839;53.364;-1.204;2023-12-28T14:10:24;2.60;;;0.80;;
19406;SDS011;9839;53.364;-1.204;2023-12-28T14:12:50;7.73;;;1.00;;
19406;SDS011;9839;53.364;-1.204;2023-12-28T14:15:15;6.33;;;1.00;;
19406;SDS011;9839;53.364;-1.204;2023-12-28T14:17:41;6.63;;;1.47;;
19406;SDS011;9839;53.364;-1.204;2023-12-28T14:20:07;6.90;;;1.30;;
19406;SDS011;9839;53.364;-1.204;2023-12-28T14:22:34;11.57;;;2.13;;
19406;SDS011;9839;53.364;-1.204;2023-12-28T14:25:00;8.50;;;1.77;;
19406;SDS011;9839;53.364;-1.204;2023-12-28T14:27:28;7.17;;;1.13;;
19406;SDS011;9839;53.364;-1.204;2023-12-28T14:29:54;9.23;;;1.90;;
19406;SDS011;9839;53.364;-1.204;2023-12-28T14:32:20;9.53;;;1.50;;
19406;SDS011;9839;53.364;-1.204;2023-12-28T14:34:46;11.47;;;2.33;;
19406;SDS011;9839;53.364;-1.204;2023-12-28T14:37:12;15.60;;;2.30;;
19406;SDS011;9839;53.364;-1.204;2023-12-28T14:39:37;13.73;;;1.80;;
19406;SDS011;9839;53.364;-1.204;2023-12-28T14:42:03;11.80;;;1.40;;
19406;SDS011;9839;53.364;-1.204;2023-12-28T14:44:29;9.13;;;1.37;;